sensor_id;sensor_type;location;lat;lon;timestamp;P1;durP1;ratioP1;P2;durP2;ratioP2
77736;SDS011;66903;59.926;30.404;2023-07-29T00:03:31;2.47;;;1.13;;
77736;SDS011;66903;59.926;30.404;2023-07-29T00:08:32;4.95;;;0.88;;
77736;SDS011;66903;59.926;30.404;2023-07-29T00:13:32;3.78;;;1.58;;
77736;SDS011;66903;59.926;30.404;2023-07-29T00:18:33;4.07;;;1.67;;
77736;SDS011;66903;59.926;30.404;2023-07-29T00:23:34;4.00;;;1.70;;
77736;SDS011;66903;59.926;30.404;2023-07-29T00:28:34;6.68;;;2.38;;
77736;SDS011;66903;59.926;30.404;2023-07-29T00:33:35;3.55;;;1.80;;
77736;SDS011;66903;59.926;30.404;2023-07-29T00:38:35;3.63;;;1.48;;
77736;SDS011;66903;59.926;30.404;2023-07-29T00:43:36;5.00;;;1.77;;
77736;SDS011;66903;59.926;30.404;2023-07-29T00:48:36;4.00;;;1.80;;
77736;SDS011;66903;59.926;30.404;2023-07-29T00:53:37;5.40;;;2.20;;
77736;SDS011;66903;59.926;30.404;2023-07-29T00:58:38;5.45;;;2.25;;
77736;SDS011;66903;59.926;30.404;2023-07-29T01:03:39;4.35;;;1.95;;
77736;SDS011;66903;59.926;30.404;2023-07-29T01:19:04;3.78;;;1.02;;
77736;SDS011;66903;59.926;30.404;2023-07-29T01:24:09;3.58;;;1.27;;
77736;SDS011;66903;59.926;30.404;2023-07-29T01:29:09;3.55;;;0.90;;
77736;SDS011;66903;59.926;30.404;2023-07-29T01:34:15;2.70;;;0.93;;
77736;SDS011;66903;59.926;30.404;2023-07-29T01:39:25;5.88;;;1.10;;
77736;SDS011;66903;59.926;30.404;2023-07-29T01:44:29;4.05;;;1.20;;
77736;SDS011;66903;59.926;30.404;2023-07-29T01:49:30;4.05;;;1.05;;
77736;SDS011;66903;59.926;30.404;2023-07-29T01:54:30;3.58;;;1.17;;
77736;SDS011;66903;59.926;30.404;2023-07-29T01:59:31;3.30;;;1.15;;
77736;SDS011;66903;59.926;30.404;2023-07-29T02:04:31;4.05;;;1.17;;
77736;SDS011;66903;59.926;30.404;2023-07-29T02:09:32;5.93;;;1.25;;
77736;SDS011;66903;59.926;30.404;2023-07-29T02:14:32;3.47;;;1.33;;
77736;SDS011;66903;59.926;30.404;2023-07-29T02:19:33;3.92;;;1.10;;
77736;SDS011;66903;59.926;30.404;2023-07-29T02:24:34;5.18;;;1.30;;
77736;SDS011;66903;59.926;30.404;2023-07-29T02:29:34;3.88;;;1.20;;
77736;SDS011;66903;59.926;30.404;2023-07-29T02:34:35;4.38;;;1.60;;
77736;SDS011;66903;59.926;30.404;2023-07-29T02:39:36;3.28;;;1.30;;
77736;SDS011;66903;59.926;30.404;2023-07-29T02:44:37;4.43;;;1.50;;
77736;SDS011;66903;59.926;30.404;2023-07-29T02:49:37;5.95;;;1.67;;
77736;SDS011;66903;59.926;30.404;2023-07-29T02:54:38;4.15;;;1.60;;
77736;SDS011;66903;59.926;30.404;2023-07-29T02:59:38;5.68;;;1.45;;
77736;SDS011;66903;59.926;30.404;2023-07-29T03:04:39;4.47;;;1.30;;
77736;SDS011;66903;59.926;30.404;2023-07-29T03:09:39;4.25;;;1.65;;
77736;SDS011;66903;59.926;30.404;2023-07-29T03:14:42;3.33;;;1.05;;
77736;SDS011;66903;59.926;30.404;2023-07-29T03:19:42;6.57;;;1.42;;
77736;SDS011;66903;59.926;30.404;2023-07-29T03:24:43;3.65;;;1.45;;
77736;SDS011;66903;59.926;30.404;2023-07-29T03:29:43;4.65;;;1.70;;
77736;SDS011;66903;59.926;30.404;2023-07-29T03:34:44;4.95;;;1.70;;
77736;SDS011;66903;59.926;30.404;2023-07-29T03:39:44;6.40;;;1.70;;
77736;SDS011;66903;59.926;30.404;2023-07-29T03:44:45;5.40;;;2.03;;
77736;SDS011;66903;59.926;30.404;2023-07-29T03:49:45;6.75;;;2.10;;
77736;SDS011;66903;59.926;30.404;2023-07-29T03:54:46;4.25;;;1.85;;
77736;SDS011;66903;59.926;30.404;2023-07-29T03:59:46;3.65;;;1.20;;
77736;SDS011;66903;59.926;30.404;2023-07-29T04:04:47;3.90;;;1.55;;
77736;SDS011;66903;59.926;30.404;2023-07-29T04:09:48;4.40;;;2.08;;
77736;SDS011;66903;59.926;30.404;2023-07-29T04:14:49;3.88;;;1.98;;
77736;SDS011;66903;59.926;30.404;2023-07-29T04:19:49;3.75;;;1.80;;
77736;SDS011;66903;59.926;30.404;2023-07-29T04:24:50;5.20;;;1.90;;
77736;SDS011;66903;59.926;30.404;2023-07-29T04:29:51;3.55;;;1.45;;
77736;SDS011;66903;59.926;30.404;2023-07-29T04:34:51;8.95;;;1.98;;
77736;SDS011;66903;59.926;30.404;2023-07-29T04:39:52;2.95;;;1.40;;
77736;SDS011;66903;59.926;30.404;2023-07-29T04:44:52;5.38;;;1.25;;
77736;SDS011;66903;59.926;30.404;2023-07-29T04:49:52;5.22;;;1.48;;
77736;SDS011;66903;59.926;30.404;2023-07-29T04:54:53;3.45;;;1.40;;
77736;SDS011;66903;59.926;30.404;2023-07-29T04:59:54;3.30;;;1.40;;
77736;SDS011;66903;59.926;30.404;2023-07-29T05:04:54;3.65;;;1.30;;
77736;SDS011;66903;59.926;30.404;2023-07-29T05:09:55;3.20;;;1.30;;
77736;SDS011;66903;59.926;30.404;2023-07-29T05:14:55;3.40;;;1.30;;
77736;SDS011;66903;59.926;30.404;2023-07-29T05:19:56;3.30;;;1.13;;
77736;SDS011;66903;59.926;30.404;2023-07-29T05:24:56;4.50;;;1.17;;
77736;SDS011;66903;59.926;30.404;2023-07-29T05:29:57;3.45;;;1.08;;
77736;SDS011;66903;59.926;30.404;2023-07-29T05:34:57;3.00;;;1.13;;
77736;SDS011;66903;59.926;30.404;2023-07-29T05:39:58;3.17;;;0.95;;
77736;SDS011;66903;59.926;30.404;2023-07-29T05:44:59;3.00;;;0.98;;
77736;SDS011;66903;59.926;30.404;2023-07-29T05:50:00;3.60;;;1.08;;
77736;SDS011;66903;59.926;30.404;2023-07-29T05:55:04;2.85;;;1.02;;
77736;SDS011;66903;59.926;30.404;2023-07-29T06:00:05;3.42;;;1.23;;
77736;SDS011;66903;59.926;30.404;2023-07-29T06:05:06;2.58;;;1.20;;
77736;SDS011;66903;59.926;30.404;2023-07-29T06:10:08;3.90;;;1.20;;
77736;SDS011;66903;59.926;30.404;2023-07-29T06:15:13;4.35;;;1.13;;
77736;SDS011;66903;59.926;30.404;2023-07-29T06:20:14;3.03;;;1.10;;
77736;SDS011;66903;59.926;30.404;2023-07-29T06:25:14;2.60;;;1.00;;
77736;SDS011;66903;59.926;30.404;2023-07-29T06:30:15;2.58;;;0.85;;
77736;SDS011;66903;59.926;30.404;2023-07-29T06:35:15;4.75;;;1.00;;
77736;SDS011;66903;59.926;30.404;2023-07-29T06:40:16;2.85;;;1.10;;
77736;SDS011;66903;59.926;30.404;2023-07-29T06:45:17;3.10;;;1.00;;
77736;SDS011;66903;59.926;30.404;2023-07-29T06:50:17;2.80;;;1.10;;
77736;SDS011;66903;59.926;30.404;2023-07-29T06:55:18;2.42;;;0.82;;
77736;SDS011;66903;59.926;30.404;2023-07-29T07:00:18;2.70;;;0.82;;
77736;SDS011;66903;59.926;30.404;2023-07-29T07:05:19;5.00;;;0.60;;
77736;SDS011;66903;59.926;30.404;2023-07-29T07:10:20;2.72;;;0.90;;
77736;SDS011;66903;59.926;30.404;2023-07-29T07:15:20;6.35;;;0.75;;
77736;SDS011;66903;59.926;30.404;2023-07-29T07:20:21;4.55;;;0.75;;
77736;SDS011;66903;59.926;30.404;2023-07-29T07:25:22;2.58;;;0.80;;
77736;SDS011;66903;59.926;30.404;2023-07-29T07:30:22;4.68;;;1.88;;
77736;SDS011;66903;59.926;30.404;2023-07-29T07:35:23;1.98;;;0.73;;
77736;SDS011;66903;59.926;30.404;2023-07-29T07:40:23;3.95;;;0.88;;
77736;SDS011;66903;59.926;30.404;2023-07-29T07:45:24;4.07;;;0.70;;
77736;SDS011;66903;59.926;30.404;2023-07-29T07:50:24;18.55;;;1.15;;
77736;SDS011;66903;59.926;30.404;2023-07-29T07:55:25;9.50;;;1.60;;
77736;SDS011;66903;59.926;30.404;2023-07-29T08:00:25;2.90;;;1.00;;
77736;SDS011;66903;59.926;30.404;2023-07-29T08:05:26;2.72;;;1.00;;
77736;SDS011;66903;59.926;30.404;2023-07-29T08:10:26;5.07;;;1.10;;
77736;SDS011;66903;59.926;30.404;2023-07-29T08:15:27;4.32;;;1.40;;
77736;SDS011;66903;59.926;30.404;2023-07-29T08:20:27;5.10;;;2.13;;
77736;SDS011;66903;59.926;30.404;2023-07-29T08:25:28;5.63;;;2.33;;
77736;SDS011;66903;59.926;30.404;2023-07-29T08:30:29;6.80;;;1.65;;
77736;SDS011;66903;59.926;30.404;2023-07-29T08:35:29;4.30;;;1.50;;
77736;SDS011;66903;59.926;30.404;2023-07-29T08:40:30;4.35;;;1.30;;
77736;SDS011;66903;59.926;30.404;2023-07-29T08:45:35;4.72;;;1.35;;
77736;SDS011;66903;59.926;30.404;2023-07-29T08:50:37;7.38;;;1.10;;
77736;SDS011;66903;59.926;30.404;2023-07-29T08:55:37;3.60;;;1.20;;
77736;SDS011;66903;59.926;30.404;2023-07-29T09:00:39;6.03;;;1.17;;
77736;SDS011;66903;59.926;30.404;2023-07-29T09:05:40;3.22;;;1.20;;
77736;SDS011;66903;59.926;30.404;2023-07-29T09:10:41;2.95;;;0.93;;
77736;SDS011;66903;59.926;30.404;2023-07-29T09:15:41;4.38;;;1.00;;
77736;SDS011;66903;59.926;30.404;2023-07-29T09:20:42;3.15;;;0.90;;
77736;SDS011;66903;59.926;30.404;2023-07-29T09:25:43;5.47;;;1.05;;
77736;SDS011;66903;59.926;30.404;2023-07-29T09:30:46;3.55;;;1.05;;
77736;SDS011;66903;59.926;30.404;2023-07-29T09:35:47;5.63;;;0.90;;
77736;SDS011;66903;59.926;30.404;2023-07-29T09:40:48;2.85;;;1.00;;
77736;SDS011;66903;59.926;30.404;2023-07-29T09:45:48;4.25;;;1.05;;
77736;SDS011;66903;59.926;30.404;2023-07-29T09:50:52;2.67;;;1.00;;
77736;SDS011;66903;59.926;30.404;2023-07-29T09:55:52;3.35;;;1.20;;
77736;SDS011;66903;59.926;30.404;2023-07-29T10:00:53;3.70;;;1.27;;
77736;SDS011;66903;59.926;30.404;2023-07-29T10:05:54;3.65;;;1.20;;
77736;SDS011;66903;59.926;30.404;2023-07-29T10:10:55;2.80;;;0.90;;
77736;SDS011;66903;59.926;30.404;2023-07-29T10:15:57;1.80;;;0.73;;
77736;SDS011;66903;59.926;30.404;2023-07-29T10:20:59;2.17;;;0.75;;
77736;SDS011;66903;59.926;30.404;2023-07-29T10:26:02;4.90;;;0.90;;
77736;SDS011;66903;59.926;30.404;2023-07-29T10:31:04;1.88;;;0.70;;
77736;SDS011;66903;59.926;30.404;2023-07-29T10:36:05;4.45;;;1.10;;
77736;SDS011;66903;59.926;30.404;2023-07-29T10:41:06;2.88;;;0.80;;
77736;SDS011;66903;59.926;30.404;2023-07-29T10:46:19;3.80;;;0.90;;
77736;SDS011;66903;59.926;30.404;2023-07-29T10:51:36;2.00;;;0.80;;
77736;SDS011;66903;59.926;30.404;2023-07-29T10:56:41;9.05;;;1.20;;
77736;SDS011;66903;59.926;30.404;2023-07-29T11:01:50;3.08;;;0.90;;
77736;SDS011;66903;59.926;30.404;2023-07-29T11:12:44;5.20;;;1.73;;
77736;SDS011;66903;59.926;30.404;2023-07-29T11:18:04;18.63;;;9.15;;
77736;SDS011;66903;59.926;30.404;2023-07-29T11:23:08;12.20;;;5.82;;
77736;SDS011;66903;59.926;30.404;2023-07-29T11:28:09;9.68;;;4.53;;
77736;SDS011;66903;59.926;30.404;2023-07-29T11:33:09;20.00;;;11.10;;
77736;SDS011;66903;59.926;30.404;2023-07-29T11:38:14;25.40;;;15.20;;
77736;SDS011;66903;59.926;30.404;2023-07-29T11:43:17;26.60;;;14.93;;
77736;SDS011;66903;59.926;30.404;2023-07-29T11:48:30;15.07;;;8.93;;
77736;SDS011;66903;59.926;30.404;2023-07-29T11:53:32;9.38;;;4.53;;
77736;SDS011;66903;59.926;30.404;2023-07-29T11:58:32;12.35;;;5.57;;
77736;SDS011;66903;59.926;30.404;2023-07-29T12:03:33;10.55;;;4.82;;
77736;SDS011;66903;59.926;30.404;2023-07-29T12:08:34;9.23;;;3.38;;
77736;SDS011;66903;59.926;30.404;2023-07-29T12:13:37;10.65;;;3.72;;
77736;SDS011;66903;59.926;30.404;2023-07-29T12:18:38;8.05;;;2.78;;
77736;SDS011;66903;59.926;30.404;2023-07-29T12:23:38;6.93;;;2.72;;
77736;SDS011;66903;59.926;30.404;2023-07-29T12:28:44;6.22;;;2.53;;
77736;SDS011;66903;59.926;30.404;2023-07-29T12:33:46;7.57;;;2.28;;
77736;SDS011;66903;59.926;30.404;2023-07-29T12:38:46;5.28;;;2.22;;
77736;SDS011;66903;59.926;30.404;2023-07-29T12:43:47;5.72;;;1.40;;
77736;SDS011;66903;59.926;30.404;2023-07-29T12:48:47;4.32;;;1.65;;
77736;SDS011;66903;59.926;30.404;2023-07-29T12:53:48;5.35;;;1.33;;
77736;SDS011;66903;59.926;30.404;2023-07-29T12:58:48;5.35;;;1.70;;
77736;SDS011;66903;59.926;30.404;2023-07-29T13:03:49;9.25;;;3.10;;
77736;SDS011;66903;59.926;30.404;2023-07-29T13:08:49;5.97;;;2.38;;
77736;SDS011;66903;59.926;30.404;2023-07-29T13:13:50;7.60;;;1.80;;
77736;SDS011;66903;59.926;30.404;2023-07-29T13:18:50;3.00;;;1.30;;
77736;SDS011;66903;59.926;30.404;2023-07-29T13:23:51;3.45;;;1.40;;
77736;SDS011;66903;59.926;30.404;2023-07-29T13:28:52;4.68;;;1.20;;
77736;SDS011;66903;59.926;30.404;2023-07-29T13:33:53;4.07;;;1.30;;
77736;SDS011;66903;59.926;30.404;2023-07-29T13:38:53;3.08;;;1.10;;
77736;SDS011;66903;59.926;30.404;2023-07-29T13:43:54;3.53;;;1.20;;
77736;SDS011;66903;59.926;30.404;2023-07-29T13:48:55;5.60;;;1.70;;
77736;SDS011;66903;59.926;30.404;2023-07-29T13:53:55;6.72;;;1.58;;
77736;SDS011;66903;59.926;30.404;2023-07-29T13:58:56;3.38;;;1.10;;
77736;SDS011;66903;59.926;30.404;2023-07-29T14:03:56;8.93;;;1.25;;
77736;SDS011;66903;59.926;30.404;2023-07-29T14:08:57;5.72;;;1.20;;
77736;SDS011;66903;59.926;30.404;2023-07-29T14:13:57;6.20;;;1.20;;
77736;SDS011;66903;59.926;30.404;2023-07-29T14:18:58;5.03;;;1.30;;
77736;SDS011;66903;59.926;30.404;2023-07-29T14:23:59;2.72;;;0.95;;
77736;SDS011;66903;59.926;30.404;2023-07-29T14:28:59;3.22;;;1.02;;
77736;SDS011;66903;59.926;30.404;2023-07-29T14:34:00;11.38;;;1.40;;
77736;SDS011;66903;59.926;30.404;2023-07-29T14:39:00;4.10;;;0.90;;
77736;SDS011;66903;59.926;30.404;2023-07-29T14:44:01;2.95;;;1.13;;
77736;SDS011;66903;59.926;30.404;2023-07-29T14:49:01;4.78;;;1.00;;
77736;SDS011;66903;59.926;30.404;2023-07-29T14:54:02;6.03;;;1.08;;
77736;SDS011;66903;59.926;30.404;2023-07-29T14:59:02;3.67;;;0.90;;
77736;SDS011;66903;59.926;30.404;2023-07-29T15:04:03;5.15;;;1.30;;
77736;SDS011;66903;59.926;30.404;2023-07-29T15:09:04;3.33;;;0.65;;
77736;SDS011;66903;59.926;30.404;2023-07-29T15:14:05;3.28;;;0.75;;
77736;SDS011;66903;59.926;30.404;2023-07-29T15:19:06;2.35;;;0.82;;
77736;SDS011;66903;59.926;30.404;2023-07-29T15:24:06;1.80;;;0.73;;
77736;SDS011;66903;59.926;30.404;2023-07-29T15:29:07;2.75;;;0.95;;
77736;SDS011;66903;59.926;30.404;2023-07-29T15:34:07;2.60;;;0.90;;
77736;SDS011;66903;59.926;30.404;2023-07-29T15:39:08;2.58;;;0.90;;
77736;SDS011;66903;59.926;30.404;2023-07-29T15:44:08;2.92;;;0.90;;
77736;SDS011;66903;59.926;30.404;2023-07-29T15:49:09;2.40;;;0.82;;
77736;SDS011;66903;59.926;30.404;2023-07-29T15:54:10;3.35;;;0.82;;
77736;SDS011;66903;59.926;30.404;2023-07-29T15:59:11;4.50;;;1.30;;
77736;SDS011;66903;59.926;30.404;2023-07-29T16:04:11;2.95;;;0.95;;
77736;SDS011;66903;59.926;30.404;2023-07-29T16:09:12;4.95;;;0.90;;
77736;SDS011;66903;59.926;30.404;2023-07-29T16:14:13;5.18;;;1.17;;
77736;SDS011;66903;59.926;30.404;2023-07-29T16:19:21;15.60;;;3.10;;
77736;SDS011;66903;59.926;30.404;2023-07-29T16:24:23;9.40;;;2.83;;
77736;SDS011;66903;59.926;30.404;2023-07-29T16:29:24;9.43;;;2.83;;
77736;SDS011;66903;59.926;30.404;2023-07-29T16:34:24;8.75;;;2.28;;
77736;SDS011;66903;59.926;30.404;2023-07-29T16:39:25;8.65;;;3.20;;
77736;SDS011;66903;59.926;30.404;2023-07-29T16:44:25;12.27;;;4.05;;
77736;SDS011;66903;59.926;30.404;2023-07-29T16:49:26;6.47;;;2.10;;
77736;SDS011;66903;59.926;30.404;2023-07-29T16:54:26;8.40;;;2.75;;
77736;SDS011;66903;59.926;30.404;2023-07-29T16:59:27;8.18;;;2.13;;
77736;SDS011;66903;59.926;30.404;2023-07-29T17:04:28;11.07;;;4.32;;
77736;SDS011;66903;59.926;30.404;2023-07-29T17:09:28;4.15;;;1.38;;
77736;SDS011;66903;59.926;30.404;2023-07-29T17:14:29;7.07;;;1.30;;
77736;SDS011;66903;59.926;30.404;2023-07-29T17:19:30;5.03;;;1.27;;
77736;SDS011;66903;59.926;30.404;2023-07-29T17:24:30;3.92;;;0.90;;
77736;SDS011;66903;59.926;30.404;2023-07-29T17:29:31;4.22;;;1.05;;
77736;SDS011;66903;59.926;30.404;2023-07-29T17:34:32;3.92;;;1.08;;
77736;SDS011;66903;59.926;30.404;2023-07-29T17:39:32;4.05;;;0.93;;
77736;SDS011;66903;59.926;30.404;2023-07-29T17:44:33;3.40;;;1.10;;
77736;SDS011;66903;59.926;30.404;2023-07-29T17:49:33;2.70;;;0.88;;
77736;SDS011;66903;59.926;30.404;2023-07-29T17:54:34;5.70;;;0.88;;
77736;SDS011;66903;59.926;30.404;2023-07-29T17:59:34;2.85;;;0.85;;
77736;SDS011;66903;59.926;30.404;2023-07-29T18:04:35;2.28;;;0.70;;
77736;SDS011;66903;59.926;30.404;2023-07-29T18:09:35;3.17;;;0.90;;
77736;SDS011;66903;59.926;30.404;2023-07-29T18:14:36;4.53;;;0.75;;
77736;SDS011;66903;59.926;30.404;2023-07-29T18:19:38;1.98;;;0.77;;
77736;SDS011;66903;59.926;30.404;2023-07-29T18:24:41;2.63;;;0.80;;
77736;SDS011;66903;59.926;30.404;2023-07-29T18:29:42;2.63;;;1.05;;
77736;SDS011;66903;59.926;30.404;2023-07-29T18:34:42;3.65;;;0.90;;
77736;SDS011;66903;59.926;30.404;2023-07-29T18:39:43;8.95;;;0.88;;
77736;SDS011;66903;59.926;30.404;2023-07-29T18:44:44;2.72;;;1.00;;
77736;SDS011;66903;59.926;30.404;2023-07-29T18:49:44;4.03;;;1.00;;
77736;SDS011;66903;59.926;30.404;2023-07-29T18:54:45;4.00;;;1.10;;
77736;SDS011;66903;59.926;30.404;2023-07-29T18:59:45;8.52;;;1.77;;
77736;SDS011;66903;59.926;30.404;2023-07-29T19:04:46;5.88;;;1.30;;
77736;SDS011;66903;59.926;30.404;2023-07-29T19:09:48;3.58;;;0.93;;
77736;SDS011;66903;59.926;30.404;2023-07-29T19:14:48;4.10;;;1.30;;
77736;SDS011;66903;59.926;30.404;2023-07-29T19:19:49;3.50;;;1.00;;
77736;SDS011;66903;59.926;30.404;2023-07-29T19:24:50;7.93;;;1.60;;
77736;SDS011;66903;59.926;30.404;2023-07-29T19:29:50;6.35;;;1.30;;
77736;SDS011;66903;59.926;30.404;2023-07-29T19:34:52;4.45;;;1.00;;
77736;SDS011;66903;59.926;30.404;2023-07-29T19:39:55;3.47;;;0.88;;
77736;SDS011;66903;59.926;30.404;2023-07-29T19:44:55;2.78;;;0.90;;
77736;SDS011;66903;59.926;30.404;2023-07-29T19:49:56;2.42;;;0.95;;
77736;SDS011;66903;59.926;30.404;2023-07-29T19:54:56;4.35;;;1.20;;
77736;SDS011;66903;59.926;30.404;2023-07-29T19:59:57;4.68;;;1.40;;
77736;SDS011;66903;59.926;30.404;2023-07-29T20:04:57;4.03;;;1.00;;
77736;SDS011;66903;59.926;30.404;2023-07-29T20:09:58;4.03;;;1.10;;
77736;SDS011;66903;59.926;30.404;2023-07-29T20:14:58;2.28;;;0.88;;
77736;SDS011;66903;59.926;30.404;2023-07-29T20:20:03;4.97;;;1.20;;
77736;SDS011;66903;59.926;30.404;2023-07-29T20:25:04;4.00;;;1.10;;
77736;SDS011;66903;59.926;30.404;2023-07-29T20:30:05;2.97;;;0.90;;
77736;SDS011;66903;59.926;30.404;2023-07-29T20:35:06;2.95;;;0.93;;
77736;SDS011;66903;59.926;30.404;2023-07-29T20:40:07;3.15;;;0.90;;
77736;SDS011;66903;59.926;30.404;2023-07-29T20:45:08;2.58;;;0.80;;
77736;SDS011;66903;59.926;30.404;2023-07-29T20:50:09;2.88;;;0.93;;
77736;SDS011;66903;59.926;30.404;2023-07-29T20:55:10;4.22;;;0.95;;
77736;SDS011;66903;59.926;30.404;2023-07-29T21:00:10;3.53;;;1.02;;
77736;SDS011;66903;59.926;30.404;2023-07-29T21:05:11;5.55;;;1.10;;
77736;SDS011;66903;59.926;30.404;2023-07-29T21:10:12;3.33;;;1.10;;
77736;SDS011;66903;59.926;30.404;2023-07-29T21:15:12;3.47;;;0.90;;
77736;SDS011;66903;59.926;30.404;2023-07-29T21:20:13;2.70;;;0.77;;
77736;SDS011;66903;59.926;30.404;2023-07-29T21:25:13;4.20;;;1.20;;
77736;SDS011;66903;59.926;30.404;2023-07-29T21:30:14;3.40;;;0.90;;
77736;SDS011;66903;59.926;30.404;2023-07-29T21:35:14;2.80;;;1.08;;
77736;SDS011;66903;59.926;30.404;2023-07-29T21:40:15;2.65;;;1.10;;
77736;SDS011;66903;59.926;30.404;2023-07-29T21:45:16;4.00;;;1.35;;
77736;SDS011;66903;59.926;30.404;2023-07-29T21:50:16;4.28;;;1.27;;
77736;SDS011;66903;59.926;30.404;2023-07-29T21:55:17;5.65;;;1.08;;
77736;SDS011;66903;59.926;30.404;2023-07-29T22:00:18;3.70;;;1.10;;
77736;SDS011;66903;59.926;30.404;2023-07-29T22:05:20;3.83;;;1.17;;
77736;SDS011;66903;59.926;30.404;2023-07-29T22:10:20;3.53;;;1.05;;
77736;SDS011;66903;59.926;30.404;2023-07-29T22:15:21;3.95;;;1.30;;
77736;SDS011;66903;59.926;30.404;2023-07-29T22:20:21;7.70;;;3.03;;
77736;SDS011;66903;59.926;30.404;2023-07-29T22:25:22;4.15;;;1.35;;
77736;SDS011;66903;59.926;30.404;2023-07-29T22:30:22;3.70;;;1.00;;
77736;SDS011;66903;59.926;30.404;2023-07-29T22:35:23;7.57;;;1.25;;
77736;SDS011;66903;59.926;30.404;2023-07-29T22:40:24;2.47;;;0.90;;
77736;SDS011;66903;59.926;30.404;2023-07-29T22:45:24;4.18;;;1.10;;
77736;SDS011;66903;59.926;30.404;2023-07-29T22:50:25;4.05;;;1.08;;
77736;SDS011;66903;59.926;30.404;2023-07-29T22:55:25;3.45;;;1.00;;
77736;SDS011;66903;59.926;30.404;2023-07-29T23:00:26;5.10;;;1.00;;
77736;SDS011;66903;59.926;30.404;2023-07-29T23:05:26;2.78;;;0.88;;
77736;SDS011;66903;59.926;30.404;2023-07-29T23:10:27;3.97;;;1.00;;
77736;SDS011;66903;59.926;30.404;2023-07-29T23:15:28;3.97;;;0.90;;
77736;SDS011;66903;59.926;30.404;2023-07-29T23:20:33;3.05;;;0.98;;
77736;SDS011;66903;59.926;30.404;2023-07-29T23:25:35;4.85;;;1.08;;
77736;SDS011;66903;59.926;30.404;2023-07-29T23:30:35;2.80;;;1.02;;
77736;SDS011;66903;59.926;30.404;2023-07-29T23:35:37;3.67;;;1.30;;
77736;SDS011;66903;59.926;30.404;2023-07-29T23:40:38;3.33;;;1.00;;
77736;SDS011;66903;59.926;30.404;2023-07-29T23:45:38;3.00;;;1.13;;
77736;SDS011;66903;59.926;30.404;2023-07-29T23:50:39;3.33;;;1.10;;
77736;SDS011;66903;59.926;30.404;2023-07-29T23:55:40;3.60;;;1.00;;
